Time;durP1;ratioP1;P1;durP2;ratioP2;P2;SDS_P1;SDS_P2;PMS_P1;PMS_P2;Temp;Humidity;BMP_temperature;BMP_pressure;BME280_temperature;BME280_humidity;BME280_pressure;Samples;Min_cycle;Max_cycle;Signal;HPM_P1;HPM_P2
2022/08/27 00:02:24;;;;;;;0.10;0.00;;;21.00;99.90;;;;;;4893408;29;20457;-94
2022/08/27 00:04:49;;;;;;;0.10;0.00;;;20.90;99.90;;;;;;4889074;29;20539;-94
2022/08/27 00:07:15;;;;;;;0.10;0.00;;;20.90;99.90;;;;;;4891541;29;20215;-94
2022/08/27 00:09:41;;;;;;;0.10;0.00;;;20.90;99.90;;;;;;4885724;29;20193;-94
2022/08/27 00:12:08;;;;;;;0.10;0.00;;;20.90;99.90;;;;;;4894705;29;20224;-93
2022/08/27 00:14:35;;;;;;;0.10;0.00;;;20.90;99.90;;;;;;4890568;29;20465;-93
2022/08/27 00:17:01;;;;;;;0.10;0.00;;;20.90;99.90;;;;;;4892481;29;20517;-92
2022/08/27 00:19:26;;;;;;;0.10;0.00;;;20.80;99.90;;;;;;4892671;29;20453;-94
2022/08/27 00:21:52;;;;;;;0.10;0.00;;;20.80;99.90;;;;;;4894371;29;20201;-93
2022/08/27 00:24:17;;;;;;;0.10;0.00;;;20.80;99.90;;;;;;4891781;29;20196;-93
2022/08/27 00:26:44;;;;;;;0.10;0.00;;;20.70;99.90;;;;;;4891693;29;20232;-93
2022/08/27 00:29:10;;;;;;;0.10;0.00;;;20.70;99.90;;;;;;4895191;29;20185;-93
2022/08/27 00:31:35;;;;;;;0.10;0.00;;;20.70;99.90;;;;;;4896329;29;20481;-94
2022/08/27 00:34:01;;;;;;;0.10;0.00;;;20.70;99.90;;;;;;4894990;29;20662;-94
2022/08/27 00:36:26;;;;;;;0.10;0.00;;;20.70;99.90;;;;;;4896990;29;20280;-93
2022/08/27 00:38:52;;;;;;;0.10;0.00;;;20.70;99.90;;;;;;4891978;29;20260;-93
2022/08/27 00:41:19;;;;;;;0.10;0.00;;;20.70;99.90;;;;;;4892337;29;20201;-93
2022/08/27 00:43:50;;;;;;;0.10;0.00;;;20.70;99.90;;;;;;4889446;29;20446;-93
2022/08/27 00:46:18;;;;;;;0.10;0.00;;;20.70;99.90;;;;;;4890007;29;20487;-94
2022/08/27 00:48:44;;;;;;;0.10;0.00;;;20.70;99.90;;;;;;4895384;29;20508;-94
2022/08/27 00:51:10;;;;;;;0.10;0.00;;;20.70;99.90;;;;;;4895561;29;20528;-93
2022/08/27 00:53:36;;;;;;;0.10;0.00;;;20.50;99.90;;;;;;4888816;29;20574;-92
2022/08/27 00:56:11;;;;;;;0.10;0.00;;;20.60;99.90;;;;;;4892597;29;20197;-93
2022/08/27 00:58:43;;;;;;;0.10;0.00;;;20.60;99.90;;;;;;4894526;29;20476;-94
2022/08/27 01:01:12;;;;;;;0.10;0.00;;;20.60;99.90;;;;;;4897238;29;20552;-95
2022/08/27 01:03:40;;;;;;;0.10;0.00;;;20.60;99.90;;;;;;4888192;29;21291;-93
2022/08/27 01:06:10;;;;;;;0.10;0.00;;;20.50;99.90;;;;;;4892216;29;20449;-94
2022/08/27 01:08:39;;;;;;;0.10;0.00;;;20.50;99.90;;;;;;4893258;29;21113;-92
2022/08/27 01:11:05;;;;;;;0.10;0.00;;;20.40;99.90;;;;;;4893942;29;20480;-91
2022/08/27 01:13:32;;;;;;;0.10;0.00;;;20.40;99.90;;;;;;4892530;29;20449;-91
2022/08/27 01:15:59;;;;;;;0.10;0.10;;;20.40;99.90;;;;;;4894250;29;21055;-94
2022/08/27 01:18:26;;;;;;;0.10;0.00;;;20.40;99.90;;;;;;4892704;29;20568;-94
2022/08/27 01:21:02;;;;;;;0.10;0.00;;;20.40;99.90;;;;;;4880146;29;20442;-94
2022/08/27 01:23:44;;;;;;;0.10;0.00;;;20.30;99.90;;;;;;4904985;29;20444;-92
2022/08/27 01:26:12;;;;;;;0.10;0.00;;;20.40;99.90;;;;;;4892338;29;20465;-94
2022/08/27 01:28:39;;;;;;;0.10;0.00;;;20.40;99.90;;;;;;4892187;29;20450;-93
2022/08/27 01:31:07;;;;;;;0.10;0.00;;;20.30;99.90;;;;;;4905631;29;20667;-94
2022/08/27 01:33:33;;;;;;;0.10;0.00;;;20.40;99.90;;;;;;4897656;29;20586;-93
2022/08/27 01:35:59;;;;;;;0.10;0.00;;;20.30;99.90;;;;;;4891272;29;20470;-92
2022/08/27 01:38:26;;;;;;;0.10;0.00;;;20.30;99.90;;;;;;4891331;29;20934;-94
2022/08/27 01:40:52;;;;;;;0.10;0.10;;;20.30;99.90;;;;;;4895958;29;20185;-94
2022/08/27 01:43:17;;;;;;;0.10;0.00;;;20.20;99.90;;;;;;4896218;29;20517;-91
2022/08/27 01:45:47;;;;;;;0.10;0.00;;;20.20;99.90;;;;;;4896640;29;20457;-94
2022/08/27 01:48:14;;;;;;;0.10;0.00;;;20.20;99.90;;;;;;4897223;29;20189;-95
2022/08/27 01:50:40;;;;;;;0.10;0.10;;;20.20;99.90;;;;;;4894886;29;20473;-94
2022/08/27 01:53:12;;;;;;;0.10;0.00;;;20.20;99.90;;;;;;4894021;29;20450;-94
2022/08/27 01:55:39;;;;;;;0.10;0.00;;;20.20;99.90;;;;;;4895644;29;20445;-95
2022/08/27 01:58:05;;;;;;;0.10;0.00;;;20.10;99.90;;;;;;4893099;29;20922;-94
2022/08/27 02:00:35;;;;;;;0.10;0.00;;;20.10;99.90;;;;;;4893374;29;20445;-95
2022/08/27 02:03:01;;;;;;;0.10;0.00;;;20.10;99.90;;;;;;4898034;29;20189;-94
2022/08/27 02:05:28;;;;;;;0.10;0.00;;;20.10;99.90;;;;;;4912006;29;20457;-94
2022/08/27 02:07:54;;;;;;;0.10;0.00;;;20.10;99.90;;;;;;4888429;29;21144;-94
2022/08/27 02:10:24;;;;;;;0.10;0.00;;;20.10;99.90;;;;;;4889763;29;20493;-93
2022/08/27 02:12:51;;;;;;;0.10;0.00;;;20.10;99.90;;;;;;4889654;29;20441;-92
2022/08/27 02:15:17;;;;;;;0.10;0.00;;;20.10;99.90;;;;;;4894198;29;20937;-94
2022/08/27 02:17:42;;;;;;;0.10;0.00;;;20.00;99.90;;;;;;4893549;29;20468;-95
2022/08/27 02:20:09;;;;;;;0.10;0.00;;;20.00;99.90;;;;;;4895496;29;20198;-93
2022/08/27 02:22:36;;;;;;;0.10;0.00;;;20.00;99.90;;;;;;4891769;29;20188;-93
2022/08/27 02:25:01;;;;;;;0.10;0.10;;;20.00;99.90;;;;;;4895127;29;20453;-94
2022/08/27 02:27:27;;;;;;;0.10;0.00;;;20.10;99.90;;;;;;4893942;29;20446;-94
2022/08/27 02:29:54;;;;;;;0.10;0.00;;;20.10;99.90;;;;;;4885070;29;20643;-95
2022/08/27 02:32:21;;;;;;;0.10;0.00;;;20.00;99.90;;;;;;4896550;29;20760;-94
2022/08/27 02:34:46;;;;;;;0.10;0.00;;;20.00;99.90;;;;;;4896894;29;20627;-92
2022/08/27 02:37:12;;;;;;;0.10;0.10;;;20.00;99.90;;;;;;4894344;29;20460;-94
2022/08/27 02:39:37;;;;;;;0.10;0.00;;;19.90;99.90;;;;;;4898363;29;20185;-95
2022/08/27 02:42:03;;;;;;;0.10;0.00;;;20.00;99.90;;;;;;4912754;29;20212;-94
2022/08/27 02:44:30;;;;;;;0.10;0.07;;;19.90;99.90;;;;;;4896189;29;20227;-93
2022/08/27 02:46:56;;;;;;;0.10;0.10;;;19.90;99.90;;;;;;4891241;29;20187;-96
2022/08/27 02:49:22;;;;;;;0.10;0.10;;;19.80;99.90;;;;;;4896705;29;20454;-94
2022/08/27 02:51:51;;;;;;;0.10;0.00;;;19.90;99.90;;;;;;4896225;29;20233;-95
2022/08/27 02:54:17;;;;;;;0.10;0.00;;;19.90;99.90;;;;;;4896373;29;20184;-94
2022/08/27 02:56:42;;;;;;;0.10;0.10;;;19.90;99.90;;;;;;4892773;29;20865;-94
2022/08/27 02:59:08;;;;;;;0.10;0.00;;;19.90;99.90;;;;;;4893769;29;20723;-93
2022/08/27 03:01:33;;;;;;;0.10;0.00;;;19.90;99.90;;;;;;4891029;29;20209;-94
2022/08/27 03:03:59;;;;;;;0.10;0.10;;;19.80;99.90;;;;;;4896656;29;20193;-94
2022/08/27 03:06:25;;;;;;;0.10;0.00;;;19.80;99.90;;;;;;4891994;29;20197;-95
2022/08/27 03:08:50;;;;;;;0.10;0.00;;;19.80;99.90;;;;;;4891189;29;20469;-93
2022/08/27 03:11:16;;;;;;;0.10;0.10;;;19.70;99.90;;;;;;4893899;29;20233;-92
2022/08/27 03:13:41;;;;;;;0.10;0.00;;;19.70;99.90;;;;;;4892617;29;20280;-96
2022/08/27 03:16:07;;;;;;;0.10;0.00;;;19.80;99.90;;;;;;4884100;29;20237;-93
2022/08/27 03:18:33;;;;;;;0.10;0.10;;;19.70;99.90;;;;;;4896470;29;20193;-95
2022/08/27 03:21:00;;;;;;;0.10;0.00;;;19.80;99.90;;;;;;4891299;29;20540;-95
2022/08/27 03:23:28;;;;;;;0.10;0.00;;;19.70;99.90;;;;;;4895821;29;20938;-92
2022/08/27 03:25:56;;;;;;;0.10;0.00;;;19.70;99.90;;;;;;4910975;29;20512;-94
2022/08/27 03:28:25;;;;;;;0.10;0.00;;;19.60;99.90;;;;;;4895655;29;20527;-93
2022/08/27 03:30:54;;;;;;;0.10;0.00;;;19.60;99.90;;;;;;4895532;29;20567;-94
2022/08/27 03:33:21;;;;;;;0.10;0.10;;;19.60;99.90;;;;;;4895950;29;20961;-94
2022/08/27 03:35:47;;;;;;;0.10;0.00;;;19.50;99.90;;;;;;4897412;29;20461;-95
2022/08/27 03:38:14;;;;;;;0.10;0.07;;;19.50;99.90;;;;;;4894781;29;20453;-95
2022/08/27 03:40:40;;;;;;;0.10;0.00;;;19.50;99.90;;;;;;4894016;29;20457;-95
2022/08/27 03:43:06;;;;;;;0.10;0.00;;;19.50;99.90;;;;;;4894790;29;20473;-95
2022/08/27 03:45:31;;;;;;;0.10;0.00;;;19.50;99.90;;;;;;4895195;29;20481;-95
2022/08/27 03:47:57;;;;;;;0.10;0.00;;;19.40;99.90;;;;;;4894680;29;20189;-94
2022/08/27 03:50:22;;;;;;;0.10;0.00;;;19.30;99.90;;;;;;4895625;29;20705;-94
2022/08/27 03:52:48;;;;;;;0.10;0.00;;;19.40;99.90;;;;;;4894039;29;20185;-94
2022/08/27 03:55:14;;;;;;;0.10;0.00;;;19.40;99.90;;;;;;4892946;29;20193;-96
2022/08/27 03:57:39;;;;;;;0.10;0.10;;;19.40;99.90;;;;;;4892069;29;20938;-94
2022/08/27 04:00:09;;;;;;;0.10;0.00;;;19.40;99.90;;;;;;4894743;29;20200;-94
2022/08/27 04:02:35;;;;;;;0.10;0.00;;;19.40;99.90;;;;;;4894859;29;20654;-92
2022/08/27 04:05:00;;;;;;;0.10;0.00;;;19.30;99.90;;;;;;4896861;29;20504;-94
2022/08/27 04:07:26;;;;;;;0.10;0.10;;;19.30;99.90;;;;;;4898536;29;20268;-94
2022/08/27 04:09:51;;;;;;;0.10;0.00;;;19.30;99.90;;;;;;4900205;29;20288;-94
2022/08/27 04:12:17;;;;;;;0.10;0.10;;;19.30;99.90;;;;;;4898650;29;20201;-94
2022/08/27 04:14:42;;;;;;;0.10;0.10;;;19.20;99.90;;;;;;4898031;29;20319;-93
2022/08/27 04:17:08;;;;;;;0.10;0.10;;;19.20;99.90;;;;;;4899215;29;20201;-96
2022/08/27 04:19:34;;;;;;;0.10;0.10;;;19.20;99.90;;;;;;4897572;29;20196;-95
2022/08/27 04:22:04;;;;;;;0.10;0.10;;;19.20;99.90;;;;;;4887059;29;20766;-94
2022/08/27 04:24:32;;;;;;;0.10;0.00;;;19.20;99.90;;;;;;4896803;29;20185;-95
2022/08/27 04:26:59;;;;;;;0.10;0.00;;;19.20;99.90;;;;;;4899236;29;20461;-95
2022/08/27 04:29:24;;;;;;;0.10;0.10;;;19.30;99.90;;;;;;4896439;29;20445;-94
2022/08/27 04:31:50;;;;;;;0.10;0.00;;;19.20;99.90;;;;;;4896882;29;21004;-94
2022/08/27 04:34:16;;;;;;;0.10;0.10;;;19.20;99.90;;;;;;4891990;29;20185;-94
2022/08/27 04:36:41;;;;;;;0.10;0.00;;;19.20;99.90;;;;;;4896594;29;21768;-92
2022/08/27 04:39:07;;;;;;;0.10;0.00;;;19.20;99.90;;;;;;4896722;29;20444;-93
2022/08/27 04:41:33;;;;;;;0.10;0.00;;;19.20;99.90;;;;;;4898561;29;20205;-93
2022/08/27 04:44:06;;;;;;;0.10;0.00;;;19.20;99.90;;;;;;4896844;29;20211;-92
2022/08/27 04:46:34;;;;;;;0.10;0.00;;;19.20;99.90;;;;;;4899148;29;20701;-94
2022/08/27 04:49:12;;;;;;;0.10;0.10;;;19.20;99.90;;;;;;4899018;29;20445;-94
2022/08/27 04:51:38;;;;;;;0.10;0.00;;;19.20;99.90;;;;;;4894136;29;20488;-94
2022/08/27 04:54:05;;;;;;;0.10;0.00;;;19.20;99.90;;;;;;4897295;29;20445;-93
2022/08/27 04:56:31;;;;;;;0.10;0.00;;;19.20;99.90;;;;;;4897329;29;20453;-94
2022/08/27 04:58:57;;;;;;;0.10;0.10;;;19.10;99.90;;;;;;4896627;29;20442;-93
2022/08/27 05:01:26;;;;;;;0.10;0.07;;;19.10;99.90;;;;;;4911063;29;20536;-93
2022/08/27 05:03:53;;;;;;;0.10;0.10;;;19.10;99.90;;;;;;4895735;29;20220;-93
2022/08/27 05:06:20;;;;;;;0.10;0.00;;;19.00;99.90;;;;;;4891614;29;20445;-91
2022/08/27 05:08:47;;;;;;;0.10;0.10;;;19.00;99.90;;;;;;4889002;29;20516;-92
2022/08/27 05:11:15;;;;;;;0.10;0.10;;;19.00;99.90;;;;;;4895258;29;20583;-93
2022/08/27 05:13:41;;;;;;;0.10;0.10;;;19.00;99.90;;;;;;4894051;29;20437;-94
2022/08/27 05:16:13;;;;;;;0.10;0.10;;;19.10;99.90;;;;;;4906201;29;20496;-94
2022/08/27 05:18:39;;;;;;;0.10;0.10;;;19.10;99.90;;;;;;4894851;29;20540;-92
2022/08/27 05:21:06;;;;;;;0.10;0.10;;;19.10;99.90;;;;;;4895631;29;21037;-94
2022/08/27 05:23:32;;;;;;;0.10;0.00;;;19.10;99.90;;;;;;4896237;29;20538;-93
2022/08/27 05:25:59;;;;;;;0.10;0.10;;;19.10;99.90;;;;;;4892672;29;20442;-94
2022/08/27 05:28:26;;;;;;;0.10;0.10;;;19.10;99.90;;;;;;4894876;29;20457;-92
2022/08/27 05:30:54;;;;;;;0.10;0.10;;;19.00;99.90;;;;;;4893211;29;20684;-95
2022/08/27 05:33:23;;;;;;;0.10;0.10;;;19.10;99.90;;;;;;4889451;29;20452;-94
2022/08/27 05:35:58;;;;;;;0.10;0.00;;;19.00;99.90;;;;;;4895328;29;21021;-92
2022/08/27 05:38:27;;;;;;;0.10;0.10;;;19.00;99.90;;;;;;4890991;29;20452;-95
2022/08/27 05:41:12;;;;;;;0.10;0.00;;;19.00;99.90;;;;;;4897065;29;20450;-91
2022/08/27 05:43:40;;;;;;;0.10;0.00;;;19.00;99.90;;;;;;4880649;29;20438;-95
2022/08/27 05:46:10;;;;;;;0.10;0.10;;;19.10;99.90;;;;;;4883000;29;20509;-90
2022/08/27 05:48:38;;;;;;;0.10;0.00;;;19.00;99.90;;;;;;4891326;29;21028;-94
2022/08/27 05:51:28;;;;;;;0.10;0.00;;;19.00;99.90;;;;;;4895121;29;20576;-92
2022/08/27 05:53:57;;;;;;;0.10;0.00;;;19.00;99.90;;;;;;4898536;29;20524;-94
2022/08/27 05:56:24;;;;;;;0.10;0.00;;;19.00;99.90;;;;;;4895473;29;20806;-92
2022/08/27 06:01:41;;;;;;;0.10;0.10;;;19.00;99.90;;;;;;4891369;29;20820;-96
2022/08/27 06:04:08;;;;;;;0.10;0.10;;;18.90;99.90;;;;;;4905087;29;20653;-91
2022/08/27 06:06:35;;;;;;;0.10;0.10;;;18.90;99.90;;;;;;4890684;29;20591;-91
2022/08/27 06:09:01;;;;;;;0.10;0.00;;;18.80;99.90;;;;;;4892283;29;20894;-92
2022/08/27 06:11:27;;;;;;;0.10;0.10;;;18.80;99.90;;;;;;4908972;29;21191;-91
2022/08/27 06:13:54;;;;;;;0.10;0.10;;;18.70;99.90;;;;;;4895139;29;20244;-93
2022/08/27 06:16:19;;;;;;;0.10;0.07;;;18.80;99.90;;;;;;4895867;29;21021;-92
2022/08/27 06:18:46;;;;;;;0.10;0.10;;;18.80;99.90;;;;;;4896116;29;20456;-91
2022/08/27 06:21:13;;;;;;;0.10;0.10;;;18.90;99.90;;;;;;4892453;29;20289;-93
2022/08/27 06:23:39;;;;;;;0.10;0.10;;;18.80;99.90;;;;;;4896505;29;20910;-92
2022/08/27 06:26:07;;;;;;;0.10;0.10;;;18.80;99.90;;;;;;4894514;29;20458;-92
2022/08/27 06:28:33;;;;;;;0.10;0.10;;;18.80;99.90;;;;;;4911937;29;20541;-93
2022/08/27 06:31:14;;;;;;;0.10;0.10;;;18.80;99.90;;;;;;4893999;29;20473;-91
2022/08/27 06:33:42;;;;;;;0.10;0.00;;;18.80;99.90;;;;;;4895898;29;20457;-92
2022/08/27 06:36:11;;;;;;;0.10;0.10;;;18.80;99.90;;;;;;4893254;29;20456;-92
2022/08/27 06:38:37;;;;;;;0.10;0.10;;;18.80;99.90;;;;;;4896337;29;20460;-92
2022/08/27 06:41:04;;;;;;;0.10;0.10;;;18.80;99.90;;;;;;4889306;29;20459;-91
2022/08/27 06:43:30;;;;;;;0.10;0.10;;;18.90;99.90;;;;;;4893187;29;20449;-92
2022/08/27 06:45:55;;;;;;;0.10;0.10;;;18.80;99.90;;;;;;4894441;29;20449;-92
2022/08/27 06:48:21;;;;;;;0.10;0.10;;;18.80;99.90;;;;;;4881399;29;20284;-91
2022/08/27 06:50:46;;;;;;;0.10;0.10;;;18.80;99.90;;;;;;4892698;29;20279;-91
2022/08/27 06:53:12;;;;;;;0.10;0.10;;;18.90;99.90;;;;;;4890603;29;20266;-92
2022/08/27 06:55:46;;;;;;;0.10;0.00;;;18.90;99.90;;;;;;4891466;29;20942;-93
2022/08/27 06:58:12;;;;;;;0.10;0.10;;;19.00;99.90;;;;;;4908553;29;20193;-92
2022/08/27 07:00:38;;;;;;;0.10;0.10;;;18.90;99.90;;;;;;4895054;29;20459;-92
2022/08/27 07:03:05;;;;;;;0.10;0.10;;;18.90;99.90;;;;;;4895565;29;20532;-89
2022/08/27 07:05:36;;;;;;;0.10;0.10;;;18.90;99.90;;;;;;4885816;29;20453;-91
2022/08/27 07:08:02;;;;;;;0.10;0.10;;;19.00;99.90;;;;;;4889381;29;20946;-90
2022/08/27 07:10:28;;;;;;;0.10;0.00;;;18.90;99.90;;;;;;4892638;29;20479;-91
2022/08/27 07:12:54;;;;;;;0.10;0.00;;;19.00;99.90;;;;;;4905830;29;20857;-93
2022/08/27 07:15:20;;;;;;;0.10;0.00;;;19.00;99.90;;;;;;4891043;29;20485;-91
2022/08/27 07:17:45;;;;;;;0.10;0.10;;;18.90;99.90;;;;;;4890963;29;20304;-91
2022/08/27 07:20:12;;;;;;;0.10;0.10;;;18.80;99.90;;;;;;4891047;29;20536;-92
2022/08/27 07:22:42;;;;;;;0.10;0.10;;;18.90;99.90;;;;;;4891600;29;20205;-93
2022/08/27 07:25:11;;;;;;;0.10;0.10;;;18.80;99.90;;;;;;4893174;29;20454;-92
2022/08/27 07:27:37;;;;;;;0.10;0.10;;;18.80;99.90;;;;;;4888433;29;20536;-92
2022/08/27 07:30:05;;;;;;;0.10;0.10;;;18.80;99.90;;;;;;4907652;29;20567;-94
2022/08/27 07:32:30;;;;;;;0.10;0.10;;;18.90;99.90;;;;;;4908842;29;20465;-90
2022/08/27 07:34:56;;;;;;;0.10;0.00;;;18.90;99.90;;;;;;4890432;29;20459;-91
2022/08/27 07:37:22;;;;;;;0.10;0.10;;;19.00;99.90;;;;;;4891128;29;20217;-91
2022/08/27 07:39:47;;;;;;;0.10;0.00;;;19.00;99.90;;;;;;4891192;29;20188;-91
2022/08/27 07:44:57;;;;;;;0.10;0.10;;;19.00;99.90;;;;;;4894267;29;20256;-91
2022/08/27 07:47:23;;;;;;;0.10;0.00;;;18.90;99.90;;;;;;4896098;29;20928;-92
2022/08/27 07:49:49;;;;;;;0.10;0.10;;;19.00;99.90;;;;;;4892358;29;20737;-91
2022/08/27 07:52:15;;;;;;;0.10;0.10;;;19.00;99.90;;;;;;4890470;29;20205;-91
2022/08/27 07:54:41;;;;;;;0.10;0.10;;;19.10;99.90;;;;;;4895032;29;20422;-91
2022/08/27 07:57:08;;;;;;;0.10;0.10;;;19.10;99.90;;;;;;4891676;29;20457;-92
2022/08/27 07:59:34;;;;;;;0.10;0.00;;;19.20;99.90;;;;;;4889234;29;20445;-91
2022/08/27 08:02:00;;;;;;;0.10;0.00;;;19.20;99.90;;;;;;4890182;29;20796;-90
2022/08/27 08:04:26;;;;;;;0.10;0.10;;;19.30;99.90;;;;;;4892450;29;20201;-92
2022/08/27 08:06:52;;;;;;;0.10;0.00;;;19.30;99.90;;;;;;4886490;29;20496;-91
2022/08/27 08:09:19;;;;;;;0.10;0.10;;;19.40;99.90;;;;;;4891220;29;20588;-91
2022/08/27 08:11:44;;;;;;;0.10;0.00;;;19.40;99.90;;;;;;4891836;29;20545;-90
2022/08/27 08:14:13;;;;;;;0.10;0.10;;;19.30;99.90;;;;;;4895050;29;20421;-90
2022/08/27 08:16:39;;;;;;;0.10;0.10;;;19.30;99.90;;;;;;4880891;29;20265;-92
2022/08/27 08:19:04;;;;;;;0.10;0.00;;;19.30;99.90;;;;;;4892594;29;20469;-92
2022/08/27 08:21:30;;;;;;;0.10;0.00;;;19.40;99.90;;;;;;4906653;29;20543;-92
2022/08/27 08:23:55;;;;;;;0.10;0.00;;;19.40;99.90;;;;;;4909841;29;20208;-92
2022/08/27 08:26:22;;;;;;;0.10;0.00;;;19.40;99.90;;;;;;4893891;29;20229;-91
2022/08/27 08:28:48;;;;;;;0.10;0.00;;;19.30;99.90;;;;;;4895658;29;20216;-91
2022/08/27 08:31:13;;;;;;;0.10;0.00;;;19.40;99.90;;;;;;4894586;29;20532;-92
2022/08/27 08:33:39;;;;;;;0.10;0.00;;;19.50;99.90;;;;;;4885749;29;20197;-92
2022/08/27 08:36:14;;;;;;;0.10;0.10;;;19.60;99.90;;;;;;4893729;29;20201;-90
2022/08/27 08:38:40;;;;;;;0.10;0.00;;;19.60;99.90;;;;;;4906834;29;20330;-93
2022/08/27 08:41:27;;;;;;;0.10;0.00;;;19.70;99.90;;;;;;4889453;29;20539;-90
2022/08/27 08:43:54;;;;;;;0.10;0.00;;;19.70;99.90;;;;;;4893134;29;20948;-91
2022/08/27 08:46:29;;;;;;;0.10;0.00;;;19.70;99.90;;;;;;4903002;29;21028;-90
2022/08/27 08:49:01;;;;;;;0.10;0.00;;;19.80;99.90;;;;;;4890051;29;20818;-91
2022/08/27 08:51:39;;;;;;;0.10;0.00;;;19.80;99.90;;;;;;4894453;29;20503;-92
2022/08/27 08:54:21;;;;;;;0.10;0.00;;;19.80;99.90;;;;;;4894280;29;20882;-90
2022/08/27 08:56:56;;;;;;;0.10;0.00;;;19.90;99.90;;;;;;4892250;29;20460;-92
2022/08/27 08:59:38;;;;;;;0.10;0.00;;;19.70;99.90;;;;;;4895244;29;20445;-91
2022/08/27 09:02:06;;;;;;;0.10;0.10;;;19.60;99.90;;;;;;4897886;29;20456;-91
2022/08/27 09:04:32;;;;;;;0.10;0.00;;;19.50;99.90;;;;;;4893562;29;20467;-90
2022/08/27 09:07:32;;;;;;;0.10;0.00;;;19.40;99.90;;;;;;4894544;29;20453;-91
2022/08/27 09:10:11;;;;;;;0.10;0.00;;;19.50;99.90;;;;;;4895417;29;20239;-90
2022/08/27 09:12:37;;;;;;;0.10;0.00;;;19.60;99.90;;;;;;4895051;29;20464;-92
2022/08/27 09:15:15;;;;;;;0.10;0.00;;;19.70;99.90;;;;;;4891424;29;20537;-92
2022/08/27 09:17:42;;;;;;;0.10;0.00;;;19.80;99.90;;;;;;4892307;29;20188;-91
2022/08/27 09:20:09;;;;;;;0.10;0.00;;;19.90;99.90;;;;;;4894905;29;20456;-93
2022/08/27 09:23:00;;;;;;;0.10;0.00;;;19.90;99.90;;;;;;4897186;29;20547;-93
2022/08/27 09:25:35;;;;;;;0.10;0.00;;;20.00;99.90;;;;;;4901813;29;20449;-91
2022/08/27 09:29:14;;;;;;;0.10;0.00;;;20.00;99.90;;;;;;4893181;29;20958;-91
2022/08/27 09:31:04;;;;;;;0.10;0.00;;;20.00;99.90;;;;;;4898211;29;20488;-92
2022/08/27 09:33:29;;;;;;;0.10;0.00;;;20.10;99.90;;;;;;4893289;29;20456;-93
2022/08/27 09:35:55;;;;;;;0.10;0.00;;;20.00;99.90;;;;;;4895687;29;20536;-92
2022/08/27 09:38:27;;;;;;;0.10;0.00;;;19.90;99.90;;;;;;4896131;29;20201;-92
2022/08/27 09:40:54;;;;;;;0.10;0.00;;;19.80;99.90;;;;;;4895207;29;20560;-92
2022/08/27 09:43:27;;;;;;;0.10;0.10;;;19.90;99.90;;;;;;4894834;29;20513;-95
2022/08/27 09:45:58;;;;;;;0.10;0.00;;;19.70;99.90;;;;;;4887067;29;20461;-92
2022/08/27 09:48:29;;;;;;;0.10;0.00;;;19.90;99.90;;;;;;4894717;29;20453;-90
2022/08/27 09:50:59;;;;;;;0.10;0.10;;;20.00;99.90;;;;;;4893420;29;20499;-92
2022/08/27 09:53:30;;;;;;;0.10;0.00;;;20.10;99.90;;;;;;4895750;29;20473;-93
2022/08/27 09:56:07;;;;;;;0.10;0.00;;;20.10;99.90;;;;;;4893270;29;20457;-92
2022/08/27 09:58:42;;;;;;;0.10;0.00;;;20.10;99.90;;;;;;4887351;29;20974;-90
2022/08/27 10:01:25;;;;;;;0.10;0.00;;;20.20;99.90;;;;;;4881297;29;20449;-91
2022/08/27 10:04:13;;;;;;;0.10;0.00;;;20.20;99.90;;;;;;4892421;29;20453;-90
2022/08/27 10:06:46;;;;;;;0.10;0.00;;;20.20;99.90;;;;;;4893740;29;20456;-93
2022/08/27 10:09:22;;;;;;;0.10;0.00;;;20.30;99.90;;;;;;4895287;29;20534;-92
2022/08/27 10:12:16;;;;;;;0.10;0.00;;;20.30;99.90;;;;;;4888423;29;20492;-91
2022/08/27 10:14:48;;;;;;;0.10;0.00;;;20.20;99.90;;;;;;4891356;29;21061;-92
2022/08/27 10:17:42;;;;;;;0.10;0.00;;;20.20;99.90;;;;;;4894167;29;20461;-93
2022/08/27 10:20:20;;;;;;;0.10;0.00;;;20.30;99.90;;;;;;4891849;29;20549;-91
2022/08/27 10:23:31;;;;;;;0.10;0.00;;;20.30;99.90;;;;;;4890768;29;20441;-93
2022/08/27 10:26:08;;;;;;;0.10;0.00;;;20.30;99.90;;;;;;4891277;29;20471;-95
2022/08/27 10:28:55;;;;;;;0.10;0.00;;;20.40;99.90;;;;;;4896226;29;20524;-92
2022/08/27 10:31:46;;;;;;;0.10;0.00;;;20.40;99.90;;;;;;4904072;29;20501;-92
2022/08/27 10:34:24;;;;;;;0.10;0.00;;;20.30;99.90;;;;;;4895010;29;20564;-94
2022/08/27 10:36:50;;;;;;;0.10;0.00;;;20.10;99.90;;;;;;4898128;29;20453;-94
2022/08/27 10:39:39;;;;;;;0.10;0.00;;;20.00;99.90;;;;;;4897023;29;20500;-95
2022/08/27 10:42:20;;;;;;;0.10;0.00;;;20.20;99.90;;;;;;4878833;29;20615;-93
2022/08/27 10:45:10;;;;;;;0.10;0.00;;;20.50;99.90;;;;;;4888666;29;20445;-93
2022/08/27 10:47:56;;;;;;;0.10;0.00;;;20.50;99.90;;;;;;4895623;29;20456;-91
2022/08/27 10:50:32;;;;;;;0.10;0.00;;;20.60;99.90;;;;;;4887839;29;20505;-93
2022/08/27 10:53:10;;;;;;;0.10;0.00;;;20.70;99.90;;;;;;4911439;29;20445;-93
2022/08/27 10:55:41;;;;;;;0.10;0.00;;;20.80;99.90;;;;;;4893989;29;20445;-94
2022/08/27 10:58:33;;;;;;;0.10;0.10;;;20.80;99.90;;;;;;4892996;29;20457;-95
2022/08/27 11:01:10;;;;;;;0.10;0.00;;;20.70;99.90;;;;;;4892270;29;20468;-92
2022/08/27 11:03:53;;;;;;;0.10;0.00;;;20.70;99.90;;;;;;4893532;29;20496;-93
2022/08/27 11:06:28;;;;;;;0.10;0.00;;;20.70;99.90;;;;;;4897548;29;20906;-92
2022/08/27 11:08:59;;;;;;;0.10;0.00;;;20.80;99.90;;;;;;4889963;29;20453;-92
2022/08/27 11:11:41;;;;;;;0.10;0.00;;;21.00;99.90;;;;;;4909829;29;20852;-90
2022/08/27 11:14:21;;;;;;;0.10;0.00;;;22.40;99.90;;;;;;4894243;29;20488;-89
2022/08/27 11:16:54;;;;;;;0.10;0.00;;;23.50;99.90;;;;;;4894536;29;20460;-90
2022/08/27 11:19:44;;;;;;;0.10;0.00;;;24.40;99.90;;;;;;4895620;29;20503;-92
2022/08/27 11:22:17;;;;;;;0.10;0.00;;;23.70;99.90;;;;;;4896412;29;20528;-94
2022/08/27 11:25:25;;;;;;;0.10;0.00;;;24.40;99.90;;;;;;4889610;29;20453;-91
2022/08/27 11:27:53;;;;;;;0.10;0.00;;;25.00;99.90;;;;;;4891558;29;20460;-93
2022/08/27 11:30:42;;;;;;;0.10;0.00;;;23.80;99.90;;;;;;4893021;29;20491;-90
2022/08/27 11:33:29;;;;;;;0.10;0.00;;;24.60;99.90;;;;;;4887001;29;20596;-90
2022/08/27 11:36:03;;;;;;;0.10;0.00;;;25.00;99.90;;;;;;4893049;29;20456;-88
2022/08/27 11:38:50;;;;;;;0.10;0.00;;;24.90;99.90;;;;;;4892804;29;20461;-93
2022/08/27 11:41:48;;;;;;;0.10;0.00;;;24.90;99.90;;;;;;4893297;29;20472;-91
2022/08/27 11:44:15;;;;;;;0.10;0.00;;;25.00;99.90;;;;;;4892921;29;20469;-92
2022/08/27 11:46:47;;;;;;;0.10;0.00;;;25.30;99.90;;;;;;4895322;29;20449;-91
2022/08/27 11:49:26;;;;;;;0.10;0.00;;;25.50;99.90;;;;;;4890677;29;21046;-91
2022/08/27 11:51:59;;;;;;;0.10;0.00;;;26.00;99.90;;;;;;4890909;29;21080;-91
2022/08/27 11:54:49;;;;;;;0.10;0.00;;;26.60;99.90;;;;;;4892125;29;20480;-92
2022/08/27 11:57:36;;;;;;;0.10;0.00;;;26.50;99.90;;;;;;4894005;29;20473;-92
2022/08/27 12:00:18;;;;;;;0.10;0.00;;;26.50;99.90;;;;;;4902628;29;20456;-89
2022/08/27 12:03:00;;;;;;;0.10;0.00;;;27.60;99.90;;;;;;4892345;29;20465;-93
2022/08/27 12:05:32;;;;;;;0.10;0.00;;;28.30;99.90;;;;;;4905937;29;20449;-91
2022/08/27 12:07:58;;;;;;;0.10;0.00;;;28.40;99.90;;;;;;4891319;29;20850;-92
2022/08/27 12:10:59;;;;;;;0.10;0.00;;;28.40;99.90;;;;;;4892059;29;20524;-92
2022/08/27 12:13:37;;;;;;;0.10;0.00;;;28.30;99.90;;;;;;4855353;29;21018;-91
2022/08/27 12:16:15;;;;;;;0.10;0.00;;;28.90;99.90;;;;;;4889814;29;20565;-89
2022/08/27 12:19:04;;;;;;;0.10;0.00;;;29.10;99.90;;;;;;4891630;29;20453;-90
2022/08/27 12:21:48;;;;;;;0.10;0.00;;;29.20;99.90;;;;;;4887534;29;20456;-94
2022/08/27 12:24:19;;;;;;;0.10;0.00;;;29.50;99.90;;;;;;4875947;29;20435;-87
2022/08/27 12:27:14;;;;;;;0.10;0.00;;;29.90;99.90;;;;;;4889753;29;20816;-88
2022/08/27 12:30:11;;;;;;;0.10;0.00;;;30.00;99.90;;;;;;4891436;29;20445;-88
2022/08/27 12:32:43;;;;;;;0.10;0.00;;;30.00;99.90;;;;;;4878397;29;20557;-87
2022/08/27 12:35:31;;;;;;;0.10;0.00;;;30.00;99.90;;;;;;4883188;29;20457;-88
2022/08/27 12:38:15;;;;;;;0.10;0.00;;;30.10;99.90;;;;;;4908608;29;20464;-93
2022/08/27 12:40:48;;;;;;;0.10;0.00;;;29.50;99.90;;;;;;4896561;29;20465;-93
2022/08/27 12:43:23;;;;;;;0.10;0.00;;;28.80;99.90;;;;;;4896173;29;20544;-94
2022/08/27 12:46:00;;;;;;;0.00;0.00;;;28.70;99.90;;;;;;4894905;29;20968;-92
2022/08/27 12:48:32;;;;;;;0.00;0.00;;;29.20;99.90;;;;;;4899257;29;20467;-93
2022/08/27 12:51:14;;;;;;;0.00;0.00;;;28.70;99.90;;;;;;4891883;29;20534;-92
2022/08/27 12:53:43;;;;;;;0.00;0.00;;;28.90;99.90;;;;;;4896744;29;20453;-94
2022/08/27 12:56:44;;;;;;;0.00;0.00;;;28.90;99.90;;;;;;4890763;29;20476;-90
2022/08/27 12:59:28;;;;;;;0.00;0.00;;;29.80;99.90;;;;;;4888128;29;20528;-90
2022/08/27 13:02:26;;;;;;;0.00;0.00;;;29.40;99.90;;;;;;4896029;29;20488;-92
2022/08/27 13:04:53;;;;;;;0.00;0.00;;;28.90;99.90;;;;;;4911608;29;20449;-93
2022/08/27 13:07:30;;;;;;;0.00;0.00;;;28.90;99.90;;;;;;4895862;29;20445;-91
2022/08/27 13:10:18;;;;;;;0.00;0.00;;;28.90;99.90;;;;;;4912772;29;20460;-94
2022/08/27 13:12:46;;;;;;;0.00;0.00;;;28.60;99.90;;;;;;4891354;29;20459;-96
2022/08/27 13:15:14;;;;;;;0.00;0.00;;;29.20;99.90;;;;;;4898097;29;20480;-94